Impacts METAR Board
IDs:

KMSY - New Orleans/Armstron, LA, US

Updated at: 2100 UTC 23 Jan 2020
Potential Impact None Slight Moderate High
Time 23/09Z 23/10Z 23/11Z 23/12Z 23/13Z 23/14Z 23/15Z 23/16Z 23/17Z 23/18Z 23/19Z 23/20Z 23/21Z
Temp53 53 54 54 52 51 53 56 60 60 61 63 65
Dewpt41 42 44 45 46 46 49 53 55 56 57 59 60
Altim30.06 30.05 30.03 30.02 30.03 30.04 30.03 30.02 30.01 29.99 29.95 29.91 29.89
VIS10 10 10 10 6 8 4 5 8 9 4 10 10
CIG90 85 80 60 32 29 70 95 90 43 29 14 60
CoverOVCOVCOVCOVCOVCOVCOVCOVCOVCOVCOVCOVCBKN
FltCatVFRVFRVFRVFRVFRMVFRMVFRMVFRVFRVFRMVFRMVFRVFR
WX-------RARARARA BR-RA BR-RA-RA-RA BR----
WDir1008090808070100110120120130140150
WSpd7 7 8 8 6 4 11 11 10 11 10 15 11
WGst-- -- -- -- -- -- -- -- -- -- -- -- --
R01/19
XWnd -7 -6 -8 -7 -5 -3 -11 -11 -10 -11 -9 -12 -8
HWnd 1 3 2 3 3 2 1 -1 -3 -3 -4 -9 -8
R10/28
XWnd 1 3 2 3 3 2 1 -1 -3 -3 -4 -9 -8
HWnd 7 6 8 7 5 3 11 11 10 11 9 12 8
Raw hourly METARs
KMSY 230853Z 10007KT 10SM OVC090 12/05 A3006 RMK AO2 SLP181 60000 T01170050 56026
KMSY 230953Z 08007KT 10SM OVC085 12/06 A3005 RMK AO2 SLP178 T01170056
KMSY 231053Z 09008KT 10SM SCT036 OVC080 12/07 A3003 RMK AO2 SLP171 T01220067
KMSY 231153Z 08008KT 10SM -RA SCT047 BKN060 OVC085 12/07 A3002 RMK AO2 RAB42 SLP170 P0000 60000 T01220072 10122 20111 56012
KMSY 231253Z 08006KT 6SM RA BKN032 OVC040 11/08 A3003 RMK AO2 SLP173 P0003 T01110078
KMSY 231353Z 07004KT 8SM RA OVC029 11/08 A3004 RMK AO2 SLP175 P0005 T01060078
KMSY 231453Z 10011KT 4SM RA BR FEW029 BKN070 OVC090 12/09 A3003 RMK AO2 SLP171 P0010 60018 T01170094 50001
KMSY 231553Z 11011KT 5SM -RA BR FEW050 OVC095 13/12 A3002 RMK AO2 SLP168 P0005 T01330117
KMSY 231653Z 12010KT 8SM -RA OVC090 16/13 A3001 RMK AO2 SLP166 P0002 T01560128
KMSY 231753Z 12011KT 9SM -RA SCT035 BKN043 OVC080 16/13 A2999 RMK AO2 SLP157 P0003 60028 T01560133 10156 20106 58015
KMSY 231853Z 13010KT 4SM -RA BR FEW015 BKN029 OVC050 16/14 A2995 RMK AO2 SLP143 P0003 T01610139
KMSY 232002Z 14015KT 10SM SCT009 BKN014 OVC100 17/15 A2991 RMK AO2 T01720150
KMSY 232053Z 15011KT 10SM SCT010 SCT025 BKN060 18/16 A2989 RMK AO2 SLP126 60006 T01830156 56031



Page loaded:  21:15 UTC  |   01:15 PM Pacific  |   02:15 PM Mountain  |   03:15 PM Central  |   04:15 PM Eastern

 

ADVISORIES

FORECASTS

FORECASTS

OBSERVATIONS

USER TOOLS

ABOUT US